• Join FlightAware (Why Join?)
  • Login
  • US Flag 
11:55PM EDT


 

Airport Tracker/Info


-or-


 

Live Flight TrackerFlight Track Log ✈ QJE1799 ✈ 11-May-2014 ✈ YBAS / ASP - YBBN / BNE

Flight Track Log - Related Links

Times and Time Zones

All times are in EDT time to prevent confusion due to time zone crossing. See the QJE1799 flight status page for this flight to view local times or setup timezone preferences in your user account.

Time Position Orientation Groundspeed Altitude Reporting Facility
EDT Latitude Longitude Course Direction KTS MPH feet Rate Location/Type
11:41PM -23.8502 134.0789 105° East 33,000  Level Aus ATC (Calculated)
11:41PM -23.8502 134.0789 105° East 33,000  Level Aus ATC (Calculated)
11:42PM -23.8784 134.2371 105° East 33,000  Level Aus ATC (Calculated)
11:43PM -23.8958 134.2733 104° East  Level FlightAware Approximate
11:44PM -23.9210 134.4172 105° East  Level FlightAware Approximate
11:44PM -23.9421 134.5066 104° East 33,000  Level Aus ATC (Calculated)
11:45PM -23.9632 134.5964 104° East 33,000  Level Aus ATC (Calculated)
11:46PM -23.9877 134.7011 104° East  Level FlightAware Approximate
11:46PM -23.9843 134.6863 104° East 33,000  Level Aus ATC (Calculated)
11:47PM -24.0065 134.7815 104° East  Level FlightAware Approximate
11:48PM -24.0358 134.9071 104° East  Level FlightAware Approximate
11:48PM -24.0568 134.9705 104° East 33,000  Level Aus ATC (Calculated)
11:50PM -24.1175 135.2369 104° East  Level FlightAware Approximate
11:50PM -24.1097 135.2264 104° East 33,000  Level Aus ATC (Calculated)
11:51PM -24.1380 135.3280 104° East 33,000  Level Aus ATC (Calculated)
11:52PM -24.1702 135.4708 104° East  Level FlightAware Approximate
11:52PM -24.1783 135.5068 104° East 33,000  Level Aus ATC (Calculated)
11:52PM -24.1984 135.5963 104° East 33,000  Level Aus ATC (Calculated)
11:54PM -24.2346 135.7584 104° East  Level FlightAware Approximate
11:54PM -24.2384 135.7754 104° East 33,000  Level Aus ATC (Calculated)
11:55PM -24.2664 135.9015 104° East  Level FlightAware Approximate
11:56PM -24.2860 135.9901 104° East  Level FlightAware Approximate
11:56PM -24.2980 136.0442 104° East 33,000  Level Aus ATC (Calculated)
11:57PM -24.3176 136.1333 104° East  Level FlightAware Approximate
11:58PM -24.3368 136.2208 104° East  Level FlightAware Approximate
11:59PM -24.3682 136.3642 104° East  Level FlightAware Approximate
12:00AM -24.3994 136.5075 103° East  Level FlightAware Approximate
12:01AM -24.4305 136.6510 103° East  Level FlightAware Approximate
12:01AM -24.4545 136.7622 103° East 33,000  Level Aus ATC (Calculated)
12:02AM -24.4648 136.7936 103° East  Level Estimated
12:03AM -24.4930 136.9391 103° East  Level FlightAware Approximate
12:03AM -24.4915 136.9325 103° East 33,000  Level Aus ATC (Calculated)
12:04AM -24.5284 137.1030 103° East 33,000  Level Aus ATC (Calculated)
12:05AM -24.5504 137.2054 103° East  Level FlightAware Approximate
12:06AM -24.5865 137.3736 103° East  Level FlightAware Approximate
12:06AM -24.5894 137.3873 103° East 33,000  Level Aus ATC (Calculated)
12:07AM -24.6258 137.5581 103° East 33,000  Level Aus ATC (Calculated)
12:09AM -24.6840 137.8339 103° East  Level FlightAware Approximate
12:09AM -24.7068 137.9421 103° East 33,000  Level Aus ATC (Calculated)
12:10AM -24.7406 138.1043 103° East 33,000  Level Aus ATC (Calculated)
12:10AM -24.7406 138.1043 103° East 33,000  Level Aus ATC (Calculated)
12:12AM -24.7770 138.2795 103° East  Level FlightAware Approximate
12:13AM -24.8063 138.4216 103° East  Level FlightAware Approximate
12:14AM -24.8355 138.5637 103° East  Level FlightAware Approximate
12:15AM -24.8645 138.7059 103° East  Level FlightAware Approximate
12:15AM -24.9073 138.9167 103° East 33,000  Level Aus ATC (Calculated)
12:16AM -24.8934 138.8482 103° East  Level FlightAware Approximate
12:17AM -24.9451 139.1042 103° East  Level FlightAware Approximate
12:18AM -24.9736 139.2467 102° East  Level FlightAware Approximate
12:19AM -25.0021 139.3892 102° East  Level FlightAware Approximate
12:20AM -25.0303 139.5318 102° East  Level FlightAware Approximate
12:20AM -25.0803 139.7856 102° East 33,000  Level Aus ATC (Calculated)
12:21AM -25.0585 139.6745 102° East  Level FlightAware Approximate
12:22AM -25.1174 139.9760 102° East  Level FlightAware Approximate
12:23AM -25.1451 140.1189 102° East  Level FlightAware Approximate
12:24AM -25.1727 140.2618 102° East  Level FlightAware Approximate
12:25AM -25.2001 140.4048 102° East  Level FlightAware Approximate
12:25AM -25.2378 140.6024 102° East 33,000  Level Aus ATC (Calculated)
12:26AM -25.2274 140.5479 102° East  Level FlightAware Approximate
12:26AM -25.2688 140.7660 102° East 33,000  Level Aus ATC (Calculated)
12:27AM -25.2765 140.8070 102° East  Level FlightAware Approximate
12:28AM -25.3092 140.9810 102° East  Level FlightAware Approximate
12:29AM -25.3378 141.1346 102° East  Level FlightAware Approximate
12:30AM -25.3431 141.1631 102° East  Level FlightAware Approximate
12:30AM -25.3923 141.4292 101° East 33,000  Level Aus ATC (Calculated)
12:31AM -25.3716 141.3168 102° East  Level FlightAware Approximate
12:31AM -25.4129 141.5417 101° East 33,000  Level Aus ATC (Calculated)
12:33AM -25.4531 141.7624 101° East  Level FlightAware Approximate
12:34AM -25.4809 141.9164 101° East  Level FlightAware Approximate
12:35AM -25.5086 142.0704 101° East  Level FlightAware Approximate
12:36AM -25.5361 142.2246 101° East  Level FlightAware Approximate
12:36AM -25.5548 142.3304 101° East 33,000  Level Aus ATC (Calculated)
12:37AM -25.5634 142.3788 101° East  Level FlightAware Approximate
12:38AM -25.5943 142.5542 101° East  Level FlightAware Approximate
12:38AM -25.5946 142.5561 101° East 33,000  Level Aus ATC (Calculated)
12:40AM -25.6444 142.8418 101° East  Level FlightAware Approximate
12:41AM -25.6711 142.9963 101° East  Level FlightAware Approximate
12:41AM -25.6731 143.0079 101° East 33,000  Level Aus ATC (Calculated)
12:41AM -25.6926 143.1210 101° East 33,000 60 Level Aus ATC (Calculated)
12:41AM -25.7022 143.1775 101° East 33,000 60 Level Aus ATC (Calculated)
12:42AM -25.7311 143.3472 101° East 33,000 60 Level Aus ATC (Calculated)
12:43AM -25.7312 143.3476 101° East  Level FlightAware Approximate
12:44AM -25.7599 143.5174 101° East  Level FlightAware Approximate
12:45AM -25.7859 143.6722 101° East  Level FlightAware Approximate
12:45AM -25.7883 143.6868 101° East 33,000  Level Aus ATC (Calculated)
12:46AM -25.8117 143.8271 101° East  Level FlightAware Approximate
12:46AM -25.8260 143.9133 100° East 33,000  Level Aus ATC (Calculated)
12:48AM -25.8630 144.1380 100° East  Level FlightAware Approximate
12:49AM -25.8883 144.2931 100° East  Level FlightAware Approximate
12:50AM -25.9135 144.4482 100° East  Level FlightAware Approximate
12:51AM -25.9385 144.6034 100° East  Level FlightAware Approximate
12:51AM -25.9551 144.7074 100° East 33,000  Level Aus ATC (Calculated)
12:52AM -25.9633 144.7587 100° East  Level FlightAware Approximate
12:53AM -25.9858 144.9005 100° East  Level FlightAware Approximate
12:54AM -26.0102 145.0559 100° East  Level FlightAware Approximate
12:55AM -26.0345 145.2114 100° East  Level FlightAware Approximate
12:55AM -26.0426 145.2641 100° East 35,000  Level Aus ATC (Calculated)
12:57AM -26.0878 145.5571 100° East  Level FlightAware Approximate
12:58AM -26.1115 145.7128 100° East  Level FlightAware Approximate
12:59AM -26.1350 145.8686 100° East  Level FlightAware Approximate
01:00AM -26.1584 146.0244 100° East  Level FlightAware Approximate
01:00AM -26.1571 146.0153 99° East 35,000  Level Aus ATC (Calculated)
01:01AM -26.1758 146.1407 99° East 35,000  Level Aus ATC (Calculated)
01:02AM -26.2030 146.3245 99° East  Level FlightAware Approximate
01:03AM -26.2191 146.4344 99° East  Level FlightAware Approximate
01:04AM -26.2419 146.5904 99° East  Level FlightAware Approximate
01:05AM -26.2645 146.7465 99° East  Level FlightAware Approximate
01:05AM -26.2676 146.7680 99° East 35,000  Level Aus ATC (Calculated)
01:07AM -26.3119 147.0777 99° East  Level FlightAware Approximate
01:08AM -26.3340 147.2340 99° East  Level FlightAware Approximate
01:09AM -26.3559 147.3904 99° East  Level FlightAware Approximate
01:09AM -26.3742 147.5220 279° West 35,000  Level Aus ATC (Calculated)
01:10AM -26.3776 147.5467 99° East  Level FlightAware Approximate
01:11AM -26.4012 147.7176 99° East  Level FlightAware Approximate
01:11AM -26.3492 147.3391 99° East 486 559 35,300  Level Aus ATC (RADAR)
01:12AM -26.3654 147.4550 99° East 516 594 35,300  Level Aus ATC (RADAR)
01:12AM -26.3719 147.5050 98° East 504 580 35,300 480 Level Aus ATC (RADAR)
01:13AM -26.3816 147.5810 98° East 498 573 35,700 660 Climbing Aus ATC (RADAR)
01:14AM -26.3987 147.7101 98° East 506 582 36,200 420 Climbing Aus ATC (RADAR)
01:14AM -26.4117 147.8010 99° East 509 586 36,300  Climbing Aus ATC (RADAR)
01:15AM -26.4354 147.9687 99° East 504 580 36,200 -60 Descending Aus ATC (RADAR)
01:16AM -26.4564 148.1231 99° East 503 579 36,200  Level Aus ATC (RADAR)
01:17AM -26.4730 148.2521 98° East 503 579 36,200  Level Aus ATC (RADAR)
01:17AM -26.4800 148.3038 99° East 503 579 36,200  Level Aus ATC (RADAR)
01:18AM -26.4903 148.3812 99° East 503 579 36,200  Level Aus ATC (RADAR)
01:19AM -26.5085 148.5233 98° East 505 581 36,200  Level Aus ATC (RADAR)
01:19AM -26.5202 148.6144 98° East 506 582 36,200  Level Aus ATC (RADAR)
01:20AM -26.5396 148.7564 99° East 504 580 36,200  Level Aus ATC (RADAR)
01:22AM -26.5873 148.9298 107° East 500 575 36,200  Level Aus ATC (RADAR)
01:22AM -26.6212 149.0407 109° East 500 575 36,200  Level Aus ATC (RADAR)
01:23AM -26.6394 149.1025 108° East 500 575 36,200  Level Aus ATC (RADAR)
01:23AM -26.6609 149.1769 108° East 502 578 36,200  Level Aus ATC (RADAR)
01:24AM -26.6986 149.2999 109° East 501 577 36,200  Level Aus ATC (RADAR)
01:25AM -26.7241 149.3859 108° East 498 573 36,200  Level Aus ATC (RADAR)
01:26AM -26.7716 149.5462 108° East 497 572 36,200  Level Aus ATC (RADAR)
01:27AM -26.8399 149.7805 108° East 495 570 36,200  Level Aus ATC (RADAR)
01:28AM -26.8549 149.8299 109° East 498 573 36,200  Level Aus ATC (RADAR)
01:28AM -26.8767 149.9032 108° East 493 567 36,200  Level Aus ATC (RADAR)
01:29AM -26.9168 150.0382 108° East 494 568 36,200  Level Aus ATC (RADAR)
01:30AM -26.9374 150.1123 107° East 494 568 36,200  Level Aus ATC (RADAR)
01:31AM -26.9879 150.2841 108° East 493 567 36,200  Level Aus ATC (RADAR)
01:31AM -27.0052 150.3457 108° East 493 567 36,200  Level Aus ATC (RADAR)
01:33AM -27.0757 150.5898 108° East 490 564 36,200  Level Aus ATC (RADAR)
01:33AM -27.0931 150.6507 108° East 489 563 36,200 -360 Level Aus ATC (RADAR)
01:33AM -27.0990 150.6721 107° East 495 570 36,000 -300 Descending FlightAware ADS-B (EKCH / CPH)
01:34AM -27.1211 150.7498 108° East 495 570 36,000 120 Level FlightAware ADS-B (EKCH / CPH)
01:35AM -27.1590 150.8826 108° East 490 564 36,200  Climbing Aus ATC (RADAR)
01:35AM -27.1734 150.9322 108° East 496 571 36,000 -480 Descending FlightAware ADS-B (EKCH / CPH)
01:36AM -27.2044 151.0424 108° East 499 574 35,700 -1,320 Descending FlightAware ADS-B (EKCH / CPH)
01:37AM -27.2533 151.2147 108° East 503 579 33,600 -1,920 Descending FlightAware ADS-B (EKCH / CPH)
01:38AM -27.2748 151.2909 107° East 500 575 32,500 -2,220 Descending FlightAware ADS-B (EKCH / CPH)
01:38AM -27.2944 151.3622 108° East 485 558 31,400 -2,220 Descending FlightAware ADS-B (EKCH / CPH)
01:39AM -27.3148 151.4338 107° East 469 540 30,300 -2,100 Descending FlightAware ADS-B (EKCH / CPH)
01:39AM -27.3340 151.5018 107° East 455 524 29,300 -1,920 Descending FlightAware ADS-B (EKCH / CPH)
01:40AM -27.3524 151.5675 107° East 443 510 28,400 -1,920 Descending FlightAware ADS-B (EKCH / CPH)
01:40AM -27.3715 151.6353 108° East 434 499 27,400 -2,040 Descending FlightAware ADS-B (EKCH / CPH)
01:41AM -27.3880 151.6963 107° East 427 491 26,400 -1,920 Descending FlightAware ADS-B (EKCH / CPH)
01:41AM -27.4059 151.7604 108° East 419 482 25,500 -1,860 Descending FlightAware ADS-B (EKCH / CPH)
01:42AM -27.4260 151.8345 107° East 414 476 24,400 -1,980 Descending FlightAware ADS-B (YTWB)
01:42AM -27.4427 151.8960 108° East 405 466 23,400 -1,860 Descending FlightAware ADS-B (YTWB)
01:43AM -27.4614 151.9415 120° Southeast 396 456 22,700 -1,860 Descending FlightAware ADS-B (EKCH / CPH)
01:43AM -27.4938 151.9909 129° Southeast 386 444 21,700 -1,920 Descending FlightAware ADS-B (EKCH / CPH)
01:44AM -27.5265 152.0381 127° Southeast 380 437 20,800 -1,740 Descending FlightAware ADS-B (EKCH / CPH)
01:44AM -27.5573 152.0843 122° Southeast 377 434 20,000 -1,680 Descending FlightAware ADS-B (EKCH / CPH)
01:44AM -27.5663 152.1025 115° Southeast 378 435 19,700 -2,580 Descending FlightAware ADS-B (EKCH / CPH)
01:45AM -27.5759 152.1333 103° East 377 434 18,900 -3,240 Descending FlightAware ADS-B (YTWB)
01:45AM -27.5787 152.1525 96° East 384 442 18,300 -3,540 Descending FlightAware ADS-B (YTWB)
01:45AM -27.5790 152.2159 89° East 402 463 16,500 -2,820 Descending FlightAware ADS-B (YTWB)
01:46AM -27.5786 152.2845 90° East 403 464 15,300 -2,220 Descending FlightAware ADS-B (EKCH / CPH)
01:46AM -27.5788 152.3433 90° East 393 452 14,200 -2,040 Descending FlightAware ADS-B (EKCH / CPH)
01:47AM -27.5787 152.4196 90° East 387 445 13,100 -2,100 Descending FlightAware ADS-B (YTWB)
01:47AM -27.5783 152.4811 89° East 380 437 11,900 -2,220 Descending FlightAware ADS-B (YTWB)
01:48AM -27.5781 152.5377 90° East 369 425 10,900 -2,280 Descending FlightAware ADS-B (YTWB)
01:48AM -27.5778 152.5773 90° East 361 415 10,000 -2,400 Descending FlightAware ADS-B (YTWB)
01:49AM -27.5776 152.6149 90° East 349 402 9,300 -2,100 Descending FlightAware ADS-B (YTWB)
01:49AM -27.5773 152.6506 89° East 339 390 8,600 -1,980 Descending FlightAware ADS-B (YTWB)
01:49AM -27.5772 152.6840 90° East 337 388 8,000 -2,040 Descending FlightAware ADS-B (YTWB)
01:50AM -27.5772 152.7197 90° East 335 386 7,300 -2,100 Descending FlightAware ADS-B (YTWB)
01:50AM -27.5769 152.7561 89° East 332 382 6,600 -1,980 Descending FlightAware ADS-B (YTWB)
01:50AM -27.5765 152.7882 89° East 330 380 6,000 -1,680 Descending FlightAware ADS-B (YTWB)
01:51AM -27.5762 152.8299 90° East 318 366 5,400 -1,500 Descending FlightAware ADS-B (EKCH / CPH)
01:51AM -27.5762 152.8611 90° East 302 348 4,900 -1,080 Descending FlightAware ADS-B (EKCH / CPH)
01:51AM -27.5761 152.8919 90° East 280 322 4,700 -660 Descending FlightAware ADS-B (EKCH / CPH)
01:51AM -27.5760 152.9036 89° East 273 314 4,600 -840 Descending FlightAware ADS-B (YENO)
01:52AM -27.5759 152.9294 90° East 255 293 4,300 -900 Descending FlightAware ADS-B (YENO)
01:52AM -27.5760 152.9579 90° East 242 278 4,000 -780 Descending FlightAware ADS-B (EKCH / CPH)
01:52AM -27.5760 152.9820 90° East 223 257 3,800 -780 Descending FlightAware ADS-B (EKCH / CPH)
01:53AM -27.5753 153.0054 83° East 206 237 3,500 -840 Descending FlightAware ADS-B (EKCH / CPH)
01:53AM -27.5725 153.0149 63° Northeast 197 227 3,400 -900 Descending FlightAware ADS-B (EKCH / CPH)
01:53AM -27.5665 153.0224 38° Northeast 195 224 3,200 -1,080 Descending FlightAware ADS-B (EKCH / CPH)
01:53AM -27.5516 153.0329 29° Northeast 194 223 2,900 -780 Descending FlightAware ADS-B (EKCH / CPH)
01:54AM -27.5352 153.0425 27° Northeast 190 219 2,700 -900 Descending FlightAware ADS-B (EKCH / CPH)
01:54AM -27.5193 153.0515 27° Northeast 191 220 2,300 -1,080 Descending FlightAware ADS-B (EKCH / CPH)
01:54AM -27.5044 153.0600 27° Northeast 181 208 2,000 -900 Descending FlightAware ADS-B (EKCH / CPH)
01:55AM -27.4896 153.0685 27° Northeast 167 192 1,700 -900 Descending FlightAware ADS-B (EKCH / CPH)
01:55AM -27.4771 153.0757 27° Northeast 157 181 1,400 -900 Descending FlightAware ADS-B (EKCH / CPH)
01:55AM -27.4652 153.0826 27° Northeast 132 152 1,100 -780 Descending FlightAware ADS-B (EKCH / CPH)
01:56AM -27.4538 153.0890 27° Northeast 129 148 900 -660 Descending FlightAware ADS-B (EKCH / CPH)
01:56AM -27.4438 153.0948 26° Northeast 131 151 700 -600 Descending FlightAware ADS-B (EKCH / CPH)
01:56AM -27.4330 153.1010 28° Northeast 129 148 500 -780 Descending FlightAware ADS-B (EKCH / CPH)
01:57AM -27.4221 153.1072 27° Northeast 128 147 200 -900 Descending FlightAware ADS-B (EKCH / CPH)
01:58AM -27.3957 153.1223 28° Northeast 110 127 -240 Descending FlightAware ADS-B (EKCH / CPH)